createdAt,value
2019-03-23T00:01:07.472Z,8.27
2019-03-23T00:03:36.235Z,9.23
2019-03-23T00:06:05.060Z,8.67
2019-03-23T00:08:33.827Z,8.37
2019-03-23T00:11:02.570Z,8.00
2019-03-23T00:13:31.340Z,9.30
2019-03-23T00:16:01.340Z,9.20
2019-03-23T00:18:29.876Z,7.73
2019-03-23T00:20:58.677Z,7.43
2019-03-23T00:23:27.263Z,9.60
2019-03-23T00:25:56.165Z,9.50
2019-03-23T00:28:24.587Z,9.43
2019-03-23T00:30:53.256Z,9.50
2019-03-23T00:33:22.070Z,10.73
2019-03-23T00:35:50.988Z,9.03
2019-03-23T00:38:20.862Z,10.70
2019-03-23T00:40:49.489Z,8.30
2019-03-23T00:43:17.920Z,11.23
2019-03-23T00:45:46.315Z,7.87
2019-03-23T00:48:14.729Z,8.33
2019-03-23T00:50:43.125Z,7.87
2019-03-23T00:53:11.525Z,8.77
2019-03-23T00:55:39.941Z,8.57
2019-03-23T00:58:08.345Z,10.87
2019-03-23T01:00:36.818Z,9.90
2019-03-23T01:03:05.240Z,11.97
2019-03-23T01:05:33.661Z,10.20
2019-03-23T01:08:02.070Z,7.53
2019-03-23T01:10:30.696Z,10.97
2019-03-23T01:12:59.137Z,9.13
2019-03-23T01:15:27.538Z,9.33
2019-03-23T01:17:56.149Z,11.23
2019-03-23T01:20:24.560Z,9.57
2019-03-23T01:22:53.017Z,10.10
2019-03-23T01:25:21.454Z,9.57
2019-03-23T01:27:49.849Z,8.07
2019-03-23T01:30:18.396Z,7.80
2019-03-23T01:32:46.822Z,9.53
2019-03-23T01:35:15.217Z,8.87
2019-03-23T01:37:43.613Z,8.10
2019-03-23T01:40:13.854Z,8.37
2019-03-23T01:42:42.280Z,11.37
2019-03-23T01:45:12.517Z,8.13
2019-03-23T01:47:40.939Z,11.67
2019-03-23T01:50:10.781Z,10.47
2019-03-23T01:52:39.242Z,8.47
2019-03-23T01:55:08.357Z,12.30
2019-03-23T01:57:36.846Z,8.23
2019-03-23T02:00:07.945Z,10.00
2019-03-23T02:02:36.383Z,11.87
2019-03-23T02:05:06.721Z,8.50
2019-03-23T02:07:35.132Z,9.27
2019-03-23T02:10:06.078Z,9.50
2019-03-23T02:12:34.504Z,9.50
2019-03-23T02:15:02.970Z,8.27
2019-03-23T02:17:31.394Z,11.57
2019-03-23T02:19:59.808Z,9.63
2019-03-23T02:22:28.221Z,9.37
2019-03-23T02:24:56.657Z,9.33
2019-03-23T02:27:25.075Z,8.77
2019-03-23T02:29:53.464Z,7.53
2019-03-23T02:32:21.887Z,9.97
2019-03-23T02:34:50.317Z,8.93
2019-03-23T02:37:27.618Z,10.57
2019-03-23T02:39:48.868Z,10.27
2019-03-23T02:42:17.496Z,8.60
2019-03-23T02:44:45.981Z,8.60
2019-03-23T02:47:14.400Z,8.83
2019-03-23T02:49:42.802Z,12.23
2019-03-23T02:52:11.226Z,10.13
2019-03-23T02:54:39.726Z,9.77
2019-03-23T02:57:08.147Z,8.63
2019-03-23T02:59:36.534Z,9.67
2019-03-23T03:02:04.998Z,8.30
2019-03-23T03:04:33.436Z,10.13
2019-03-23T03:07:02.254Z,8.17
2019-03-23T03:09:30.649Z,9.03
2019-03-23T03:11:59.069Z,7.87
2019-03-23T03:14:27.461Z,9.00
2019-03-23T03:16:55.865Z,7.57
2019-03-23T03:19:24.282Z,8.57
2019-03-23T03:21:52.675Z,10.57
2019-03-23T03:24:21.063Z,9.25
2019-03-23T03:26:49.484Z,8.27
2019-03-23T03:29:17.915Z,7.83
2019-03-23T03:31:46.285Z,7.93
2019-03-23T03:34:14.690Z,9.00
2019-03-23T03:36:43.182Z,7.90
2019-03-23T03:39:11.578Z,8.77
2019-03-23T03:41:39.999Z,7.80
2019-03-23T03:44:08.394Z,11.53
2019-03-23T03:46:36.796Z,8.40
2019-03-23T03:49:12.407Z,13.60
2019-03-23T03:51:35.409Z,6.90
2019-03-23T03:54:04.049Z,10.33
2019-03-23T03:56:32.491Z,9.03
2019-03-23T03:59:00.869Z,9.77
2019-03-23T04:01:29.269Z,8.20
2019-03-23T04:03:57.694Z,11.03
2019-03-23T04:06:26.085Z,10.57
2019-03-23T04:08:54.495Z,9.80
2019-03-23T04:11:22.917Z,9.73
2019-03-23T04:13:51.321Z,10.30
2019-03-23T04:16:19.707Z,11.50
2019-03-23T04:18:48.140Z,9.57
2019-03-23T04:21:16.534Z,10.47
2019-03-23T04:23:44.963Z,14.07
2019-03-23T04:26:13.357Z,16.97
2019-03-23T04:28:41.762Z,38.83
2019-03-23T04:31:10.194Z,49.00
2019-03-23T04:33:38.596Z,75.70
2019-03-23T04:36:07.747Z,75.28
2019-03-23T04:38:36.182Z,99.80
2019-03-23T04:41:04.586Z,118.67
2019-03-23T04:43:33.057Z,136.70
2019-03-23T04:46:01.490Z,135.73
2019-03-23T04:48:29.913Z,140.83
2019-03-23T04:50:58.313Z,129.93
2019-03-23T04:53:26.736Z,142.40
2019-03-23T04:55:55.144Z,152.00
2019-03-23T04:58:23.578Z,163.97
2019-03-23T05:00:51.975Z,167.90
2019-03-23T05:03:20.377Z,167.50
2019-03-23T05:05:48.809Z,165.20
2019-03-23T05:08:17.247Z,174.30
2019-03-23T05:10:45.724Z,191.57
2019-03-23T05:13:14.163Z,175.57
2019-03-23T05:15:42.561Z,180.03
2019-03-23T05:18:10.956Z,178.43
2019-03-23T05:20:39.668Z,175.43
2019-03-23T05:23:08.076Z,173.23
2019-03-23T05:25:36.469Z,181.33
2019-03-23T05:28:04.976Z,188.67
2019-03-23T05:30:33.400Z,181.73
2019-03-23T05:33:01.801Z,174.93
2019-03-23T05:35:30.229Z,185.87
2019-03-23T05:37:58.717Z,179.57
2019-03-23T05:40:27.114Z,194.63
2019-03-23T05:42:55.544Z,201.70
2019-03-23T05:45:23.949Z,190.90
2019-03-23T05:47:52.344Z,187.83
2019-03-23T05:50:20.773Z,196.93
2019-03-23T05:52:49.178Z,204.67
2019-03-23T05:55:17.573Z,194.40
2019-03-23T05:57:46.010Z,199.47
2019-03-23T06:00:16.582Z,193.57
2019-03-23T06:02:45.065Z,202.70
2019-03-23T06:05:13.653Z,198.67
2019-03-23T06:07:42.055Z,200.97
2019-03-23T06:10:10.637Z,215.90
2019-03-23T06:12:39.202Z,213.90
2019-03-23T06:15:08.035Z,205.47
2019-03-23T06:17:36.416Z,201.40
2019-03-23T06:20:07.020Z,206.03
2019-03-23T06:22:35.496Z,205.47
2019-03-23T06:25:05.635Z,213.60
2019-03-23T06:27:34.035Z,211.47
2019-03-23T06:30:02.432Z,193.37
2019-03-23T06:32:30.948Z,188.10
2019-03-23T06:34:59.351Z,171.73
2019-03-23T06:37:27.746Z,170.33
2019-03-23T06:39:56.220Z,162.73
2019-03-23T06:45:13.764Z,173.70
2019-03-23T06:47:42.168Z,158.10
2019-03-23T06:50:12.112Z,169.17
2019-03-23T06:52:40.533Z,161.00
2019-03-23T06:55:10.013Z,178.07
2019-03-23T06:57:38.504Z,163.77
2019-03-23T07:00:15.719Z,153.47
2019-03-23T07:02:44.136Z,148.13
2019-03-23T07:05:13.517Z,146.40
2019-03-23T07:07:41.919Z,136.83
2019-03-23T07:10:14.202Z,137.83
2019-03-23T07:12:42.612Z,134.33
2019-03-23T07:15:19.936Z,115.90
2019-03-23T07:17:42.013Z,116.27
2019-03-23T07:20:12.964Z,122.60
2019-03-23T07:22:41.360Z,107.67
2019-03-23T07:25:13.004Z,114.63
2019-03-23T07:27:41.414Z,119.70
2019-03-23T07:30:17.740Z,125.80
2019-03-23T07:32:46.351Z,121.70
2019-03-23T07:35:16.089Z,128.53
2019-03-23T07:37:44.493Z,130.27
2019-03-23T07:40:13.681Z,126.07
2019-03-23T07:42:42.073Z,131.93
2019-03-23T07:45:12.720Z,133.87
2019-03-23T07:47:41.150Z,130.53
2019-03-23T07:50:11.397Z,139.53
2019-03-23T07:52:39.879Z,139.43
2019-03-23T07:55:16.216Z,139.23
2019-03-23T07:57:44.993Z,143.07
2019-03-23T08:00:16.208Z,140.00
2019-03-23T08:02:44.718Z,146.47
2019-03-23T08:05:13.109Z,162.00
2019-03-23T08:07:41.593Z,158.43
2019-03-23T08:10:10.569Z,156.17
2019-03-23T08:12:38.969Z,160.20
2019-03-23T08:15:09.216Z,161.80
2019-03-23T08:17:37.649Z,152.73
2019-03-23T08:20:07.589Z,165.97
2019-03-23T08:22:36.027Z,161.23
2019-03-23T08:25:06.379Z,153.27
2019-03-23T08:27:34.785Z,145.20
2019-03-23T08:30:03.680Z,137.30
2019-03-23T08:32:32.076Z,143.93
2019-03-23T08:35:00.492Z,140.20
2019-03-23T08:37:28.927Z,136.47
2019-03-23T08:39:57.329Z,133.40
2019-03-23T08:42:25.744Z,130.53
2019-03-23T08:44:54.163Z,120.93
2019-03-23T08:47:22.582Z,129.60
2019-03-23T08:49:51.010Z,132.57
2019-03-23T08:52:19.404Z,136.80
2019-03-23T08:54:47.846Z,140.97
2019-03-23T08:57:16.252Z,133.40
2019-03-23T08:59:44.661Z,135.43
2019-03-23T09:02:13.318Z,122.70
2019-03-23T09:04:41.725Z,121.47
2019-03-23T09:07:10.117Z,128.23
2019-03-23T09:09:38.563Z,117.87
2019-03-23T09:12:07.884Z,112.30
2019-03-23T09:14:36.304Z,124.67
2019-03-23T09:17:05.066Z,117.80
2019-03-23T09:19:33.501Z,129.17
2019-03-23T09:22:01.917Z,128.70
2019-03-23T09:24:30.359Z,117.50
2019-03-23T09:26:58.938Z,106.60
2019-03-23T09:29:28.361Z,110.13
2019-03-23T09:31:56.788Z,105.23
2019-03-23T09:34:25.231Z,101.30
2019-03-23T09:36:53.615Z,102.73
2019-03-23T09:39:22.037Z,101.20
2019-03-23T09:41:50.440Z,99.30
2019-03-23T09:44:18.941Z,99.07
2019-03-23T09:46:47.380Z,99.83
2019-03-23T09:49:15.777Z,95.87
2019-03-23T09:51:44.196Z,106.30
2019-03-23T09:54:12.855Z,105.73
2019-03-23T09:56:41.257Z,108.27
2019-03-23T09:59:09.667Z,109.90
2019-03-23T10:01:38.088Z,106.53
2019-03-23T10:04:06.501Z,108.53
2019-03-23T10:06:34.937Z,111.80
2019-03-23T10:09:04.506Z,101.50
2019-03-23T10:11:32.912Z,110.83
2019-03-23T10:14:03.138Z,107.93
2019-03-23T10:16:31.617Z,113.60
2019-03-23T10:19:00.040Z,110.37
2019-03-23T10:21:28.452Z,108.03
2019-03-23T10:23:56.854Z,104.63
2019-03-23T10:26:25.280Z,99.67
2019-03-23T10:28:53.676Z,98.80
2019-03-23T10:31:22.099Z,91.07
2019-03-23T10:33:50.525Z,81.33
2019-03-23T10:36:18.919Z,78.97
2019-03-23T10:38:47.345Z,73.90
2019-03-23T10:41:15.783Z,79.80
2019-03-23T10:43:44.183Z,83.00
2019-03-23T10:46:12.589Z,87.78
2019-03-23T10:48:41.017Z,94.33
2019-03-23T10:51:10.363Z,90.27
2019-03-23T10:53:38.776Z,92.83
2019-03-23T10:56:07.658Z,86.37
2019-03-23T10:58:36.069Z,88.60
2019-03-23T11:01:04.510Z,90.27
2019-03-23T11:03:32.892Z,93.77
2019-03-23T11:06:01.297Z,88.00
2019-03-23T11:08:29.738Z,93.73
2019-03-23T11:10:58.141Z,98.70
2019-03-23T11:13:26.552Z,96.53
2019-03-23T11:15:54.999Z,94.10
2019-03-23T11:18:23.394Z,95.27
2019-03-23T11:20:51.835Z,91.37
2019-03-23T11:23:20.308Z,91.97
2019-03-23T11:25:48.721Z,87.37
2019-03-23T11:28:17.115Z,90.07
2019-03-23T11:30:45.557Z,94.10
2019-03-23T11:33:13.955Z,85.93
2019-03-23T11:35:42.375Z,89.30
2019-03-23T11:38:10.825Z,88.93
2019-03-23T11:40:39.220Z,85.87
2019-03-23T11:43:07.620Z,83.07
2019-03-23T11:45:36.047Z,83.07
2019-03-23T11:48:04.449Z,80.37
2019-03-23T11:50:32.886Z,89.07
2019-03-23T11:53:01.294Z,85.77
2019-03-23T11:55:29.705Z,84.60
2019-03-23T11:57:58.123Z,84.47
2019-03-23T12:00:26.548Z,80.33
2019-03-23T12:02:54.970Z,83.40
2019-03-23T12:05:23.377Z,81.17
2019-03-23T12:07:51.831Z,86.20
2019-03-23T12:10:20.234Z,82.77
2019-03-23T12:12:48.710Z,78.03
2019-03-23T12:15:18.760Z,80.43
2019-03-23T12:17:47.166Z,79.97
2019-03-23T12:20:15.637Z,76.27
2019-03-23T12:22:44.142Z,77.97
2019-03-23T12:25:12.893Z,80.43
2019-03-23T12:27:41.301Z,81.23
2019-03-23T12:30:17.986Z,80.30
2019-03-23T12:32:46.386Z,79.63
2019-03-23T12:35:14.793Z,81.67
2019-03-23T12:37:43.224Z,79.90
2019-03-23T12:40:12.376Z,73.93
2019-03-23T12:42:40.805Z,81.83
2019-03-23T12:45:09.927Z,82.37
2019-03-23T12:47:38.320Z,78.27
2019-03-23T12:50:09.426Z,83.60
2019-03-23T12:52:37.850Z,80.17
2019-03-23T12:55:09.504Z,79.70
2019-03-23T12:57:37.941Z,84.50
2019-03-23T13:00:12.281Z,80.03
2019-03-23T13:02:40.689Z,71.80
2019-03-23T13:05:09.448Z,77.47
2019-03-23T13:07:37.847Z,72.13
2019-03-23T13:10:08.896Z,71.60
2019-03-23T13:12:37.362Z,76.70
2019-03-23T13:15:08.248Z,73.23
2019-03-23T13:17:36.680Z,74.37
2019-03-23T13:20:05.920Z,75.83
2019-03-23T13:22:36.048Z,75.33
2019-03-23T13:25:06.993Z,81.00
2019-03-23T13:27:35.413Z,75.83
2019-03-23T13:30:06.959Z,76.03
2019-03-23T13:32:35.364Z,71.93
2019-03-23T13:35:04.325Z,73.77
2019-03-23T13:37:32.733Z,74.17
2019-03-23T13:40:01.147Z,76.00
2019-03-23T13:42:29.561Z,76.20
2019-03-23T13:44:57.996Z,76.97
2019-03-23T13:47:26.400Z,74.30
2019-03-23T13:49:55.008Z,82.60
2019-03-23T13:52:23.416Z,83.23
2019-03-23T13:54:51.819Z,79.73
2019-03-23T13:57:20.239Z,73.17
2019-03-23T13:59:48.648Z,81.50
2019-03-23T14:02:17.064Z,78.10
2019-03-23T14:04:45.485Z,79.37
2019-03-23T14:07:14.369Z,80.77
2019-03-23T14:09:45.944Z,76.53
2019-03-23T14:12:20.775Z,80.50
2019-03-23T14:14:53.273Z,80.67
2019-03-23T14:17:21.689Z,77.00
2019-03-23T14:19:50.092Z,76.90
2019-03-23T14:22:18.496Z,85.00
2019-03-23T14:24:47.005Z,80.73
2019-03-23T14:27:15.491Z,80.33
2019-03-23T14:29:45.505Z,86.10
2019-03-23T14:32:14.145Z,84.07
2019-03-23T14:34:42.548Z,82.80
2019-03-23T14:37:10.957Z,83.07
2019-03-23T14:39:39.397Z,80.17
2019-03-23T14:42:08.327Z,71.72
2019-03-23T14:44:36.726Z,70.53
2019-03-23T14:47:05.229Z,75.97
2019-03-23T14:49:33.676Z,74.17
2019-03-23T14:52:02.078Z,72.40
2019-03-23T14:54:30.925Z,69.27
2019-03-23T14:56:59.349Z,73.17
2019-03-23T14:59:27.760Z,70.80
2019-03-23T15:01:56.156Z,67.90
2019-03-23T15:04:24.585Z,66.33
2019-03-23T15:06:53.004Z,67.43
2019-03-23T15:09:21.413Z,68.17
2019-03-23T15:11:49.808Z,64.60
2019-03-23T15:14:18.237Z,66.50
2019-03-23T15:16:46.704Z,69.13
2019-03-23T15:19:15.748Z,60.77
2019-03-23T15:21:44.306Z,66.07
2019-03-23T15:24:12.704Z,64.10
2019-03-23T15:26:41.139Z,66.93
2019-03-23T15:29:09.565Z,66.63
2019-03-23T15:31:37.965Z,63.73
2019-03-23T15:34:06.383Z,63.10
2019-03-23T15:36:34.801Z,62.90
2019-03-23T15:39:04.642Z,64.07
2019-03-23T15:41:33.073Z,68.73
2019-03-23T15:44:01.478Z,62.33
2019-03-23T15:46:29.873Z,61.30
2019-03-23T15:48:58.305Z,59.97
2019-03-23T15:51:26.704Z,61.87
2019-03-23T15:53:55.192Z,59.33
2019-03-23T15:56:23.644Z,63.10
2019-03-23T15:58:52.052Z,66.30
2019-03-23T16:01:20.449Z,62.97
2019-03-23T16:03:48.876Z,60.57
2019-03-23T16:06:17.272Z,62.40
2019-03-23T16:08:45.803Z,63.80
2019-03-23T16:11:14.237Z,60.50
2019-03-23T16:13:42.645Z,63.60
2019-03-23T16:16:11.045Z,62.77
2019-03-23T16:18:39.472Z,67.03
2019-03-23T16:21:07.898Z,63.60
2019-03-23T16:23:36.297Z,61.67
2019-03-23T16:26:04.871Z,62.80
2019-03-23T16:28:33.318Z,59.80
2019-03-23T16:31:01.797Z,59.57
2019-03-23T16:33:30.197Z,62.03
2019-03-23T16:35:58.620Z,60.30
2019-03-23T16:38:27.053Z,60.50
2019-03-23T16:40:55.449Z,63.07
2019-03-23T16:43:23.884Z,63.63
2019-03-23T16:45:52.317Z,63.87
2019-03-23T16:48:20.720Z,65.40
2019-03-23T16:50:49.232Z,61.67
2019-03-23T16:53:17.673Z,67.93
2019-03-23T16:55:46.092Z,67.40
2019-03-23T16:58:16.406Z,66.50
2019-03-23T17:00:44.661Z,62.43
2019-03-23T17:03:13.056Z,65.90
2019-03-23T17:05:41.458Z,64.47
2019-03-23T17:08:09.884Z,66.47
2019-03-23T17:10:38.321Z,65.93
2019-03-23T17:13:06.743Z,64.43
2019-03-23T17:15:35.310Z,64.50
2019-03-23T17:18:03.772Z,67.60
2019-03-23T17:20:32.176Z,61.93
2019-03-23T17:23:00.624Z,63.73
2019-03-23T17:25:29.030Z,66.37
2019-03-23T17:27:57.476Z,66.00
2019-03-23T17:30:25.904Z,64.83
2019-03-23T17:32:54.317Z,60.53
2019-03-23T17:35:22.716Z,61.00
2019-03-23T17:37:51.292Z,62.80
2019-03-23T17:40:19.692Z,60.17
2019-03-23T17:42:48.439Z,60.40
2019-03-23T17:45:16.879Z,61.70
2019-03-23T17:47:45.285Z,67.07
2019-03-23T17:50:14.106Z,63.97
2019-03-23T17:52:42.586Z,64.57
2019-03-23T17:55:11.365Z,62.40
2019-03-23T17:57:39.787Z,60.80
2019-03-23T18:00:09.096Z,65.77
2019-03-23T18:02:37.797Z,68.40
2019-03-23T18:05:07.810Z,70.27
2019-03-23T18:07:36.275Z,67.97
2019-03-23T18:10:07.016Z,67.00
2019-03-23T18:12:35.765Z,63.73
2019-03-23T18:15:06.800Z,64.60
2019-03-23T18:17:35.274Z,62.33
2019-03-23T18:20:05.136Z,63.10
2019-03-23T18:22:33.532Z,67.17
2019-03-23T18:25:01.936Z,62.67
2019-03-23T18:27:30.389Z,67.30
2019-03-23T18:29:58.808Z,61.53
2019-03-23T18:32:27.218Z,68.30
2019-03-23T18:34:55.707Z,72.50
2019-03-23T18:37:24.103Z,69.73
2019-03-23T18:39:52.585Z,67.23
2019-03-23T18:42:21.083Z,71.07
2019-03-23T18:44:49.513Z,73.67
2019-03-23T18:47:17.956Z,76.43
2019-03-23T18:49:46.413Z,74.57
2019-03-23T18:52:14.813Z,77.23
2019-03-23T18:54:43.213Z,81.17
2019-03-23T18:57:11.900Z,87.77
2019-03-23T18:59:40.393Z,83.27
2019-03-23T19:02:08.807Z,79.33
2019-03-23T19:04:37.254Z,71.70
2019-03-23T19:07:05.677Z,70.10
2019-03-23T19:09:34.093Z,66.73
2019-03-23T19:12:02.488Z,64.67
2019-03-23T19:14:30.911Z,70.27
2019-03-23T19:16:59.369Z,68.03
2019-03-23T19:19:27.778Z,72.87
2019-03-23T19:21:56.177Z,70.27
2019-03-23T19:24:24.649Z,68.00
2019-03-23T19:26:53.056Z,66.03
2019-03-23T19:29:21.456Z,68.40
2019-03-23T19:31:49.903Z,68.50
2019-03-23T19:34:18.317Z,67.50
2019-03-23T19:36:46.788Z,68.10
2019-03-23T19:39:15.233Z,68.03
2019-03-23T19:41:43.656Z,67.33
2019-03-23T19:44:12.082Z,70.23
2019-03-23T19:46:40.700Z,69.07
2019-03-23T19:49:09.126Z,68.83
2019-03-23T19:51:37.521Z,71.00
2019-03-23T19:54:05.959Z,71.70
2019-03-23T19:56:34.358Z,68.17
2019-03-23T19:59:02.758Z,68.27
2019-03-23T20:01:31.202Z,68.83
2019-03-23T20:03:59.617Z,70.27
2019-03-23T20:06:28.014Z,68.90
2019-03-23T20:08:56.560Z,68.20
2019-03-23T20:11:25.036Z,69.80
2019-03-23T20:13:58.658Z,63.33
2019-03-23T20:16:23.693Z,67.77
2019-03-23T20:18:52.085Z,69.60
2019-03-23T20:21:20.520Z,71.80
2019-03-23T20:23:51.176Z,69.70
2019-03-23T20:26:19.045Z,73.15
2019-03-23T20:28:47.468Z,71.80
2019-03-23T20:31:15.865Z,67.67
2019-03-23T20:33:44.300Z,74.17
2019-03-23T20:36:12.698Z,65.83
2019-03-23T20:38:41.093Z,67.70
2019-03-23T20:41:09.528Z,70.47
2019-03-23T20:43:37.934Z,72.67
2019-03-23T20:46:06.329Z,69.23
2019-03-23T20:48:36.498Z,66.97
2019-03-23T20:51:05.197Z,70.13
2019-03-23T20:53:33.862Z,68.77
2019-03-23T20:56:02.288Z,69.47
2019-03-23T20:58:30.694Z,65.90
2019-03-23T21:00:59.093Z,68.20
2019-03-23T21:03:27.529Z,65.07
2019-03-23T21:05:55.924Z,67.77
2019-03-23T21:08:24.353Z,69.93
2019-03-23T21:10:52.750Z,65.77
2019-03-23T21:13:21.153Z,65.60
2019-03-23T21:15:49.577Z,66.90
2019-03-23T21:18:17.971Z,67.50
2019-03-23T21:20:46.429Z,70.03
2019-03-23T21:23:14.851Z,69.30
2019-03-23T21:25:43.252Z,69.53
2019-03-23T21:28:11.678Z,66.53
2019-03-23T21:30:40.072Z,63.37
2019-03-23T21:33:08.498Z,66.97
2019-03-23T21:35:36.901Z,68.07
2019-03-23T21:38:05.400Z,65.00
2019-03-23T21:40:35.025Z,68.57
2019-03-23T21:43:03.732Z,69.30
2019-03-23T21:45:32.136Z,69.17
2019-03-23T21:48:01.631Z,69.80
2019-03-23T21:50:30.037Z,66.73
2019-03-23T21:52:58.501Z,66.77
2019-03-23T21:55:26.922Z,67.50
2019-03-23T21:57:55.405Z,67.40
2019-03-23T22:00:31.228Z,70.83
2019-03-23T22:02:59.932Z,69.23
2019-03-23T22:05:28.335Z,68.60
2019-03-23T22:07:56.728Z,71.10
2019-03-23T22:10:25.170Z,67.87
2019-03-23T22:12:53.589Z,71.07
2019-03-23T22:15:22.022Z,70.10
2019-03-23T22:17:50.442Z,69.03
2019-03-23T22:20:18.862Z,75.80
2019-03-23T22:22:47.302Z,72.03
2019-03-23T22:25:15.712Z,69.03
2019-03-23T22:27:44.130Z,70.53
2019-03-23T22:30:15.882Z,75.12
2019-03-23T22:32:44.300Z,78.17
2019-03-23T22:35:12.877Z,75.90
2019-03-23T22:37:41.271Z,73.53
2019-03-23T22:40:14.567Z,76.13
2019-03-23T22:42:43.025Z,73.23
2019-03-23T22:45:12.840Z,75.37
2019-03-23T22:47:41.267Z,77.27
2019-03-23T22:50:10.309Z,79.93
2019-03-23T22:52:38.960Z,79.53
2019-03-23T22:55:07.630Z,76.37
2019-03-23T22:57:36.037Z,78.50
2019-03-23T23:00:09.675Z,82.53
2019-03-23T23:02:38.142Z,80.20
2019-03-23T23:05:07.561Z,83.37
2019-03-23T23:07:35.956Z,78.07
2019-03-23T23:10:06.224Z,83.00
2019-03-23T23:12:34.628Z,79.10
2019-03-23T23:15:04.611Z,82.17
2019-03-23T23:17:33.508Z,78.83
2019-03-23T23:20:01.908Z,80.80
2019-03-23T23:22:30.308Z,76.73
2019-03-23T23:24:58.719Z,82.53
2019-03-23T23:27:27.120Z,78.30
2019-03-23T23:29:55.552Z,77.07
2019-03-23T23:32:23.960Z,77.83
2019-03-23T23:34:52.415Z,75.03
2019-03-23T23:37:20.880Z,77.97
2019-03-23T23:39:49.282Z,76.47
2019-03-23T23:42:17.675Z,80.80
2019-03-23T23:44:46.118Z,73.40
2019-03-23T23:47:14.497Z,78.23
2019-03-23T23:49:42.898Z,79.80
2019-03-23T23:52:11.325Z,78.73
2019-03-23T23:54:39.730Z,75.57
2019-03-23T23:57:08.131Z,79.40
2019-03-23T23:59:36.573Z,81.60
